Gowen, OK (74545)

9:03 PM CDT on September 04, 2015 (GMT -0500)
McAlester Regional | | Change Station
CLOSE
Current Station
Airport
Location: McAlester,
Elevation: 768 ft
Nearby Weather Stations

Elev 768 ft 34.88 °N, 95.78 °W | Updated 10 minutes ago

Partly Cloudy
Partly Cloudy
82 °F
Feels Like 86 °F
N
5
Wind Variable Wind from East

Today
High -- | Low -- °F
--% Chance of Precip.
Yesterday
High -- | Low -- °F
Precip. -- in
6:56 AM 7:44 PM
Waning Gibbous, 54% visible
Pressure 29.92 in
Visibility 10.0 miles
Clouds Few 6000 ft
Heat Index 86 °F
Dew Point 70 °F
Humidity 67%
Rainfall 0.00 in
Snow Depth Not available.
UV 0 out of 12
Pollen 10.70 out of 12
Air Quality Not available.
Flu Activity Not available.
METAR KMLC 050153Z AUTO 08004KT 10SM FEW060 28/21 A2995 RMK AO2 SLP131 T02780211
Pressure 29.92 in
Visibility 10.0 miles
Clouds Few 6000 ft
Heat Index 86 °F
Dew Point 70 °F
Humidity 67%
Rainfall 0.00 in
Snow Depth Not available.
UV 0 out of 12
Pollen 10.70 out of 12
Air Quality Not available.
Flu Activity Not available.
METAR KMLC 050153Z AUTO 08004KT 10SM FEW060 28/21 A2995 RMK AO2 SLP131 T02780211
Nowcast | as of 8:58 PM CDT on September 4, 2015

At 9:00 PM...National Weather Service radars indicated scattered light showers in eastern Pittsburg County. All other activity across the forecast area has dissipated. An isolated shower or two will remain possible over the next hour or so south of Interstate 40 in southeast Oklahoma and west central Arkansas but will be short-lived. This will be the final short term forecast for this evening.

×

10-Day Weather Forecast

×

Almanac

Astronomy

Sep. 04, 2015 Rise Set
Actual Time
Civil Twilight
Nautical Twilight
Astronomical Twilight
Moon
Length of Visible Light
Length of Day
Tomorrow will be .
, % of the Moon is Illuminated

Today's Extremes

State Highs State Lows

Community

WunderPhotos

Upload Photos

1,852,382 photos uploaded!

WunderBlogs® & News

Nearby

Air Quality

  Air Quality AQ Index Pollutant
Not available.

Snow Depth

Station Depth Elevation

Earthquake Activity

City Distance Mag. Time & Date
Minimum magnitude displayed is 2.5.

Coastal Water Temperatures

Place Temperature

Stations

Nearby Weather Stations

Station Location Temp. Windchill Dew Point Humidity Wind Precip. Elev Updated Type